Weather at Frankfurt am Main Airport

Public forecast

Using degrees Celsius for public forecast. Weather courtesy of forecast.io.

Current aviation weather report (METAR) for Frankfurt am Main Airport

Retrieved 2022/07/06 03:50 UTC (16 minutes ago):

EDDF 060350Z 31005KT 270V330 9999 FEW030 15/09 Q1024 NOSIG

Aviation forecast (TAF) for Frankfurt am Main Airport

Retrieved 2022-07-06 00:29 UTC (4 hours ago):

TAF EDDF 052300Z 0600/0706 34008KT CAVOK BECMG 0619/0622 24004KT BECMG 0702/0705 BKN030